sensor_id;sensor_type;location;lat;lon;timestamp;pressure;altitude;pressure_sealevel;temperature;humidity
13553;BME280;6847;48.830;9.116;2023-03-04T00:01:26;98401.00;;;4.24;45.26
13553;BME280;6847;48.830;9.116;2023-03-04T00:04:11;98413.72;;;4.29;44.75
13553;BME280;6847;48.830;9.116;2023-03-04T00:06:57;98419.22;;;4.34;44.64
13553;BME280;6847;48.830;9.116;2023-03-04T00:09:43;98417.88;;;4.25;44.76
13553;BME280;6847;48.830;9.116;2023-03-04T00:12:30;98419.53;;;4.26;44.83
13553;BME280;6847;48.830;9.116;2023-03-04T00:15:20;98420.44;;;4.20;44.90
13553;BME280;6847;48.830;9.116;2023-03-04T00:18:08;98426.66;;;4.14;44.78
13553;BME280;6847;48.830;9.116;2023-03-04T00:20:54;98414.00;;;4.02;45.21
13553;BME280;6847;48.830;9.116;2023-03-04T00:23:41;98429.03;;;4.03;45.58
13553;BME280;6847;48.830;9.116;2023-03-04T00:26:27;98414.91;;;3.96;45.41
13553;BME280;6847;48.830;9.116;2023-03-04T00:29:13;98421.91;;;3.97;45.07
13553;BME280;6847;48.830;9.116;2023-03-04T00:32:00;98389.56;;;3.74;45.13
13553;BME280;6847;48.830;9.116;2023-03-04T00:34:48;98400.28;;;3.74;44.88
13553;BME280;6847;48.830;9.116;2023-03-04T00:37:33;98424.06;;;3.89;45.08
13553;BME280;6847;48.830;9.116;2023-03-04T00:40:18;98433.94;;;3.88;45.56
13553;BME280;6847;48.830;9.116;2023-03-04T00:43:07;98435.00;;;3.87;45.63
13553;BME280;6847;48.830;9.116;2023-03-04T00:46:07;98358.34;;;3.43;45.91
13553;BME280;6847;48.830;9.116;2023-03-04T00:48:53;98426.56;;;3.84;45.36
13553;BME280;6847;48.830;9.116;2023-03-04T00:51:41;98425.38;;;3.80;45.42
13553;BME280;6847;48.830;9.116;2023-03-04T00:54:26;98389.97;;;3.53;45.35
13553;BME280;6847;48.830;9.116;2023-03-04T00:57:11;98431.84;;;3.72;45.51
13553;BME280;6847;48.830;9.116;2023-03-04T00:59:58;98427.13;;;3.67;45.93
13553;BME280;6847;48.830;9.116;2023-03-04T01:02:47;98404.56;;;3.57;46.06
13553;BME280;6847;48.830;9.116;2023-03-04T01:05:36;98365.53;;;3.24;46.05
13553;BME280;6847;48.830;9.116;2023-03-04T01:08:25;98425.34;;;3.61;46.08
13553;BME280;6847;48.830;9.116;2023-03-04T01:11:11;98415.88;;;3.59;46.23
13553;BME280;6847;48.830;9.116;2023-03-04T01:13:57;98360.78;;;3.26;46.18
13553;BME280;6847;48.830;9.116;2023-03-04T01:16:42;98419.81;;;3.56;45.90
13553;BME280;6847;48.830;9.116;2023-03-04T01:19:27;98417.97;;;3.57;46.31
13553;BME280;6847;48.830;9.116;2023-03-04T01:22:13;98416.53;;;3.54;46.58
13553;BME280;6847;48.830;9.116;2023-03-04T01:25:02;98413.03;;;3.54;46.42
13553;BME280;6847;48.830;9.116;2023-03-04T01:27:47;98416.16;;;3.51;46.10
13553;BME280;6847;48.830;9.116;2023-03-04T01:30:36;98384.22;;;3.31;46.75
13553;BME280;6847;48.830;9.116;2023-03-04T01:33:26;98408.84;;;3.40;46.15
13553;BME280;6847;48.830;9.116;2023-03-04T01:36:11;98406.78;;;3.42;46.42
13553;BME280;6847;48.830;9.116;2023-03-04T01:38:57;98413.78;;;3.43;46.47
13553;BME280;6847;48.830;9.116;2023-03-04T01:41:43;98412.13;;;3.42;46.69
13553;BME280;6847;48.830;9.116;2023-03-04T01:44:28;98321.19;;;2.85;46.42
13553;BME280;6847;48.830;9.116;2023-03-04T01:47:14;98403.31;;;3.34;47.02
13553;BME280;6847;48.830;9.116;2023-03-04T01:50:04;98408.66;;;3.34;46.48
13553;BME280;6847;48.830;9.116;2023-03-04T01:52:51;98401.94;;;3.25;46.74
13553;BME280;6847;48.830;9.116;2023-03-04T01:55:37;98354.84;;;3.00;46.48
13553;BME280;6847;48.830;9.116;2023-03-04T01:58:28;98400.91;;;3.26;46.88
13553;BME280;6847;48.830;9.116;2023-03-04T02:01:15;98408.13;;;3.26;46.84
13553;BME280;6847;48.830;9.116;2023-03-04T02:04:02;98407.31;;;3.25;46.61
13553;BME280;6847;48.830;9.116;2023-03-04T02:06:49;98406.69;;;3.23;46.99
13553;BME280;6847;48.830;9.116;2023-03-04T02:09:35;98392.56;;;3.16;47.01
13553;BME280;6847;48.830;9.116;2023-03-04T02:12:22;98379.88;;;3.05;47.13
13553;BME280;6847;48.830;9.116;2023-03-04T02:15:09;98403.88;;;3.18;47.35
13553;BME280;6847;48.830;9.116;2023-03-04T02:17:55;98405.50;;;3.19;47.37
13553;BME280;6847;48.830;9.116;2023-03-04T02:20:47;98344.28;;;2.80;46.64
13553;BME280;6847;48.830;9.116;2023-03-04T02:23:42;98306.38;;;2.58;46.76
13553;BME280;6847;48.830;9.116;2023-03-04T02:26:32;98374.59;;;2.98;47.06
13553;BME280;6847;48.830;9.116;2023-03-04T02:29:18;98363.94;;;2.92;47.26
13553;BME280;6847;48.830;9.116;2023-03-04T02:32:05;98399.22;;;3.07;47.48
13553;BME280;6847;48.830;9.116;2023-03-04T02:34:51;98401.28;;;3.05;47.39
13553;BME280;6847;48.830;9.116;2023-03-04T02:37:37;98389.81;;;2.98;47.35
13553;BME280;6847;48.830;9.116;2023-03-04T02:40:28;98396.97;;;3.04;47.49
13553;BME280;6847;48.830;9.116;2023-03-04T02:43:17;98396.38;;;3.02;46.93
13553;BME280;6847;48.830;9.116;2023-03-04T02:46:03;98400.09;;;3.01;47.63
13553;BME280;6847;48.830;9.116;2023-03-04T02:48:49;98386.97;;;2.93;47.43
13553;BME280;6847;48.830;9.116;2023-03-04T02:51:35;98377.13;;;2.87;47.50
13553;BME280;6847;48.830;9.116;2023-03-04T02:54:22;98400.50;;;2.98;47.25
13553;BME280;6847;48.830;9.116;2023-03-04T02:57:10;98392.34;;;2.93;47.59
13553;BME280;6847;48.830;9.116;2023-03-04T02:59:57;98380.28;;;2.77;47.56
13553;BME280;6847;48.830;9.116;2023-03-04T03:02:43;98387.06;;;2.80;47.78
13553;BME280;6847;48.830;9.116;2023-03-04T03:05:30;98392.41;;;2.80;47.75
13553;BME280;6847;48.830;9.116;2023-03-04T03:08:16;98399.41;;;2.81;48.14
13553;BME280;6847;48.830;9.116;2023-03-04T03:11:03;98391.78;;;2.78;47.69
13553;BME280;6847;48.830;9.116;2023-03-04T03:13:48;98395.94;;;2.74;47.84
13553;BME280;6847;48.830;9.116;2023-03-04T03:16:36;98394.88;;;2.75;47.94
13553;BME280;6847;48.830;9.116;2023-03-04T03:19:21;98398.38;;;2.75;48.02
13553;BME280;6847;48.830;9.116;2023-03-04T03:22:09;98394.88;;;2.75;48.01
13553;BME280;6847;48.830;9.116;2023-03-04T03:24:59;98395.72;;;2.75;47.77
13553;BME280;6847;48.830;9.116;2023-03-04T03:27:44;98395.94;;;2.74;47.82
13553;BME280;6847;48.830;9.116;2023-03-04T03:30:32;98351.66;;;2.46;48.25
13553;BME280;6847;48.830;9.116;2023-03-04T03:33:18;98386.69;;;2.70;48.36
13553;BME280;6847;48.830;9.116;2023-03-04T03:36:05;98380.59;;;2.63;48.17
13553;BME280;6847;48.830;9.116;2023-03-04T03:38:50;98338.97;;;2.35;48.14
13553;BME280;6847;48.830;9.116;2023-03-04T03:41:36;98387.13;;;2.67;48.39
13553;BME280;6847;48.830;9.116;2023-03-04T03:44:23;98374.22;;;2.57;48.23
13553;BME280;6847;48.830;9.116;2023-03-04T03:47:08;98378.50;;;2.65;48.25
13553;BME280;6847;48.830;9.116;2023-03-04T03:49:55;98383.63;;;2.66;48.28
13553;BME280;6847;48.830;9.116;2023-03-04T03:52:41;98385.28;;;2.67;48.52
13553;BME280;6847;48.830;9.116;2023-03-04T03:55:27;98380.38;;;2.64;48.65
13553;BME280;6847;48.830;9.116;2023-03-04T03:58:14;98375.03;;;2.57;48.51
13553;BME280;6847;48.830;9.116;2023-03-04T04:01:00;98336.53;;;2.34;48.54
13553;BME280;6847;48.830;9.116;2023-03-04T04:03:47;98379.19;;;2.53;48.53
13553;BME280;6847;48.830;9.116;2023-03-04T04:06:34;98386.19;;;2.48;48.60
13553;BME280;6847;48.830;9.116;2023-03-04T04:09:19;98354.03;;;2.30;48.96
13553;BME280;6847;48.830;9.116;2023-03-04T04:12:06;98390.09;;;2.45;48.83
13553;BME280;6847;48.830;9.116;2023-03-04T04:14:52;98390.34;;;2.44;48.83
13553;BME280;6847;48.830;9.116;2023-03-04T04:17:40;98395.91;;;2.42;48.54
13553;BME280;6847;48.830;9.116;2023-03-04T04:20:26;98318.84;;;1.95;48.77
13553;BME280;6847;48.830;9.116;2023-03-04T04:23:13;98397.75;;;2.35;48.81
13553;BME280;6847;48.830;9.116;2023-03-04T04:25:58;98371.38;;;2.14;49.00
13553;BME280;6847;48.830;9.116;2023-03-04T04:28:47;98397.19;;;2.33;48.70
13553;BME280;6847;48.830;9.116;2023-03-04T04:31:33;98391.84;;;2.33;48.72
13553;BME280;6847;48.830;9.116;2023-03-04T04:34:18;98387.53;;;2.26;48.97
13553;BME280;6847;48.830;9.116;2023-03-04T04:37:04;98395.34;;;2.27;48.92
13553;BME280;6847;48.830;9.116;2023-03-04T04:39:51;98399.28;;;2.25;49.06
13553;BME280;6847;48.830;9.116;2023-03-04T04:42:38;98402.56;;;2.20;49.16
13553;BME280;6847;48.830;9.116;2023-03-04T04:45:23;98404.00;;;2.16;49.32
13553;BME280;6847;48.830;9.116;2023-03-04T04:48:09;98367.31;;;1.92;49.33
13553;BME280;6847;48.830;9.116;2023-03-04T04:50:55;98396.84;;;2.10;49.10
13553;BME280;6847;48.830;9.116;2023-03-04T04:53:40;98357.50;;;1.85;49.00
13553;BME280;6847;48.830;9.116;2023-03-04T04:56:28;98400.53;;;2.09;49.21
13553;BME280;6847;48.830;9.116;2023-03-04T04:59:13;98395.19;;;2.09;49.30
13553;BME280;6847;48.830;9.116;2023-03-04T05:01:59;98392.53;;;2.09;49.33
13553;BME280;6847;48.830;9.116;2023-03-04T05:04:45;98382.09;;;2.01;49.40
13553;BME280;6847;48.830;9.116;2023-03-04T05:07:30;98395.44;;;2.01;49.54
13553;BME280;6847;48.830;9.116;2023-03-04T05:10:16;98397.69;;;2.04;49.37
13553;BME280;6847;48.830;9.116;2023-03-04T05:13:03;98405.09;;;2.02;49.63
13553;BME280;6847;48.830;9.116;2023-03-04T05:15:50;98409.19;;;1.98;49.49
13553;BME280;6847;48.830;9.116;2023-03-04T05:18:36;98405.31;;;1.94;49.47
13553;BME280;6847;48.830;9.116;2023-03-04T05:21:21;98408.81;;;1.88;49.66
13553;BME280;6847;48.830;9.116;2023-03-04T05:24:09;98418.66;;;1.87;49.47
13553;BME280;6847;48.830;9.116;2023-03-04T05:26:54;98400.22;;;1.72;49.13
13553;BME280;6847;48.830;9.116;2023-03-04T05:29:43;98410.91;;;1.72;49.63
13553;BME280;6847;48.830;9.116;2023-03-04T05:32:29;98419.75;;;1.73;49.61
13553;BME280;6847;48.830;9.116;2023-03-04T05:35:20;98422.59;;;1.71;49.71
13553;BME280;6847;48.830;9.116;2023-03-04T05:38:09;98387.53;;;1.48;49.77
13553;BME280;6847;48.830;9.116;2023-03-04T05:40:57;98417.09;;;1.66;49.72
13553;BME280;6847;48.830;9.116;2023-03-04T05:43:43;98345.28;;;1.19;49.79
13553;BME280;6847;48.830;9.116;2023-03-04T05:46:31;98416.25;;;1.59;49.82
13553;BME280;6847;48.830;9.116;2023-03-04T05:49:16;98419.94;;;1.58;49.96
13553;BME280;6847;48.830;9.116;2023-03-04T05:52:03;98416.47;;;1.51;49.90
13553;BME280;6847;48.830;9.116;2023-03-04T05:54:49;98419.13;;;1.51;50.04
13553;BME280;6847;48.830;9.116;2023-03-04T05:57:35;98425.09;;;1.53;50.09
13553;BME280;6847;48.830;9.116;2023-03-04T06:00:21;98417.50;;;1.50;50.08
13553;BME280;6847;48.830;9.116;2023-03-04T06:03:10;98433.09;;;1.53;49.97
13553;BME280;6847;48.830;9.116;2023-03-04T06:05:58;98425.50;;;1.50;49.91
13553;BME280;6847;48.830;9.116;2023-03-04T06:08:44;98437.63;;;1.46;49.84
13553;BME280;6847;48.830;9.116;2023-03-04T06:11:29;98429.41;;;1.41;50.14
13553;BME280;6847;48.830;9.116;2023-03-04T06:14:15;98416.66;;;1.30;50.13
13553;BME280;6847;48.830;9.116;2023-03-04T06:17:01;98406.84;;;1.24;50.32
13553;BME280;6847;48.830;9.116;2023-03-04T06:19:49;98432.47;;;1.38;50.25
13553;BME280;6847;48.830;9.116;2023-03-04T06:22:34;98408.88;;;1.22;50.33
13553;BME280;6847;48.830;9.116;2023-03-04T06:25:21;98445.19;;;1.49;50.26
13553;BME280;6847;48.830;9.116;2023-03-04T06:28:06;98452.41;;;1.55;50.22
13553;BME280;6847;48.830;9.116;2023-03-04T06:30:52;98441.09;;;1.60;50.23
13553;BME280;6847;48.830;9.116;2023-03-04T06:33:39;98425.72;;;1.55;50.32
13553;BME280;6847;48.830;9.116;2023-03-04T06:36:26;98457.28;;;1.78;50.19
13553;BME280;6847;48.830;9.116;2023-03-04T06:39:14;98452.38;;;1.81;50.21
13553;BME280;6847;48.830;9.116;2023-03-04T06:41:59;98465.09;;;1.93;50.14
13553;BME280;6847;48.830;9.116;2023-03-04T06:44:49;98472.06;;;2.00;50.16
13553;BME280;6847;48.830;9.116;2023-03-04T06:47:34;98421.78;;;1.84;50.26
13553;BME280;6847;48.830;9.116;2023-03-04T06:50:20;98483.09;;;2.30;50.20
13553;BME280;6847;48.830;9.116;2023-03-04T06:53:07;98479.75;;;2.41;49.85
13553;BME280;6847;48.830;9.116;2023-03-04T06:55:54;98478.66;;;2.55;50.22
13553;BME280;6847;48.830;9.116;2023-03-04T06:58:39;98483.81;;;2.64;50.01
13553;BME280;6847;48.830;9.116;2023-03-04T07:01:27;98474.72;;;2.65;50.01
13553;BME280;6847;48.830;9.116;2023-03-04T07:04:18;98489.44;;;2.87;49.70
13553;BME280;6847;48.830;9.116;2023-03-04T07:07:06;98489.38;;;3.00;49.82
13553;BME280;6847;48.830;9.116;2023-03-04T07:09:53;98492.41;;;3.10;49.79
13553;BME280;6847;48.830;9.116;2023-03-04T07:12:41;98461.75;;;3.13;50.05
13553;BME280;6847;48.830;9.116;2023-03-04T07:15:27;98495.88;;;3.49;49.92
13553;BME280;6847;48.830;9.116;2023-03-04T07:18:12;98495.06;;;3.73;50.36
13553;BME280;6847;48.830;9.116;2023-03-04T07:21:01;98496.91;;;3.97;49.48
13553;BME280;6847;48.830;9.116;2023-03-04T07:36:47;98494.19;;;5.25;50.48
13553;BME280;6847;48.830;9.116;2023-03-04T07:39:15;98514.69;;;5.49;50.28
13553;BME280;6847;48.830;9.116;2023-03-04T07:41:41;98512.81;;;5.50;49.96
13553;BME280;6847;48.830;9.116;2023-03-04T07:44:11;98466.03;;;5.16;49.84
13553;BME280;6847;48.830;9.116;2023-03-04T07:46:38;98520.66;;;5.51;50.18
13553;BME280;6847;48.830;9.116;2023-03-04T07:49:05;98519.00;;;5.50;50.31
13553;BME280;6847;48.830;9.116;2023-03-04T07:51:32;98527.28;;;5.49;50.24
13553;BME280;6847;48.830;9.116;2023-03-04T07:54:01;98530.22;;;5.47;49.97
13553;BME280;6847;48.830;9.116;2023-03-04T07:56:31;98528.13;;;5.49;49.44
13553;BME280;6847;48.830;9.116;2023-03-04T07:58:59;98527.22;;;5.55;49.96
13553;BME280;6847;48.830;9.116;2023-03-04T08:01:27;98460.78;;;5.21;49.17
13553;BME280;6847;48.830;9.116;2023-03-04T08:03:53;98525.84;;;5.65;49.21
13553;BME280;6847;48.830;9.116;2023-03-04T08:06:21;98538.81;;;5.68;49.69
13553;BME280;6847;48.830;9.116;2023-03-04T08:09:26;98525.38;;;5.68;49.89
13553;BME280;6847;48.830;9.116;2023-03-04T08:11:53;98536.69;;;5.70;49.33
13553;BME280;6847;48.830;9.116;2023-03-04T08:14:19;98528.19;;;5.73;50.04
13553;BME280;6847;48.830;9.116;2023-03-04T08:16:46;98459.88;;;5.27;49.68
13553;BME280;6847;48.830;9.116;2023-03-04T08:19:13;98540.47;;;5.80;49.60
13553;BME280;6847;48.830;9.116;2023-03-04T08:21:40;98551.22;;;5.80;50.09
13553;BME280;6847;48.830;9.116;2023-03-04T08:24:06;98545.59;;;5.82;50.21
13553;BME280;6847;48.830;9.116;2023-03-04T08:26:36;98491.25;;;5.56;49.74
13553;BME280;6847;48.830;9.116;2023-03-04T08:29:05;98544.13;;;5.86;49.69
13553;BME280;6847;48.830;9.116;2023-03-04T08:31:32;98550.31;;;5.86;49.64
13553;BME280;6847;48.830;9.116;2023-03-04T08:34:01;98551.94;;;5.87;49.75
13553;BME280;6847;48.830;9.116;2023-03-04T09:01:18;98541.13;;;6.17;51.16
13553;BME280;6847;48.830;9.116;2023-03-04T09:04:33;98543.47;;;6.49;50.87
13553;BME280;6847;48.830;9.116;2023-03-04T09:07:43;98554.47;;;6.59;50.13
13553;BME280;6847;48.830;9.116;2023-03-04T09:10:11;98561.13;;;6.56;50.46
13553;BME280;6847;48.830;9.116;2023-03-04T09:12:40;98546.88;;;6.44;49.66
13553;BME280;6847;48.830;9.116;2023-03-04T09:15:11;98471.72;;;6.03;49.45
13553;BME280;6847;48.830;9.116;2023-03-04T09:17:46;98538.34;;;6.36;50.45
13553;BME280;6847;48.830;9.116;2023-03-04T09:20:13;98506.28;;;6.11;49.70
13553;BME280;6847;48.830;9.116;2023-03-04T09:22:41;98547.22;;;6.24;50.60
13553;BME280;6847;48.830;9.116;2023-03-04T09:25:15;98541.03;;;6.24;50.44
13553;BME280;6847;48.830;9.116;2023-03-04T09:27:41;98570.25;;;6.32;50.05
13553;BME280;6847;48.830;9.116;2023-03-04T09:30:09;98563.34;;;6.24;49.94
13553;BME280;6847;48.830;9.116;2023-03-04T09:32:37;98561.03;;;6.16;49.95
13553;BME280;6847;48.830;9.116;2023-03-04T09:35:08;98556.91;;;6.14;50.50
13553;BME280;6847;48.830;9.116;2023-03-04T09:37:41;98539.97;;;6.13;50.00
13553;BME280;6847;48.830;9.116;2023-03-04T09:40:15;98548.38;;;6.28;50.14
13553;BME280;6847;48.830;9.116;2023-03-04T09:42:46;98552.34;;;6.38;50.26
13553;BME280;6847;48.830;9.116;2023-03-04T09:45:19;98523.81;;;6.48;49.90
13553;BME280;6847;48.830;9.116;2023-03-04T09:48:01;98549.06;;;6.82;49.99
13553;BME280;6847;48.830;9.116;2023-03-04T09:50:40;98554.88;;;7.02;49.91
13553;BME280;6847;48.830;9.116;2023-03-04T09:53:19;98551.78;;;7.11;49.18
13553;BME280;6847;48.830;9.116;2023-03-04T09:55:50;98541.06;;;7.27;49.00
13553;BME280;6847;48.830;9.116;2023-03-04T09:58:40;98550.56;;;7.30;49.57
13553;BME280;6847;48.830;9.116;2023-03-04T10:01:30;98561.19;;;7.36;48.79
13553;BME280;6847;48.830;9.116;2023-03-04T10:04:14;98550.66;;;7.35;49.20
13553;BME280;6847;48.830;9.116;2023-03-04T10:06:57;98560.75;;;7.56;49.56
13553;BME280;6847;48.830;9.116;2023-03-04T10:09:27;98556.75;;;7.59;49.05
13553;BME280;6847;48.830;9.116;2023-03-04T10:12:01;98526.59;;;7.45;49.09
13553;BME280;6847;48.830;9.116;2023-03-04T10:14:36;98554.09;;;7.75;49.19
13553;BME280;6847;48.830;9.116;2023-03-04T10:17:12;98489.38;;;7.42;49.00
13553;BME280;6847;48.830;9.116;2023-03-04T10:20:03;98557.06;;;7.91;49.07
13553;BME280;6847;48.830;9.116;2023-03-04T10:22:41;98559.78;;;7.91;49.15
13553;BME280;6847;48.830;9.116;2023-03-04T10:25:17;98526.97;;;7.65;48.72
13553;BME280;6847;48.830;9.116;2023-03-04T10:27:53;98548.06;;;7.85;48.89
13553;BME280;6847;48.830;9.116;2023-03-04T10:30:31;98551.09;;;7.89;48.97
13553;BME280;6847;48.830;9.116;2023-03-04T10:33:08;98501.66;;;7.66;49.08
13553;BME280;6847;48.830;9.116;2023-03-04T10:35:41;98478.38;;;7.43;49.02
13553;BME280;6847;48.830;9.116;2023-03-04T10:38:25;98549.88;;;7.79;49.12
13553;BME280;6847;48.830;9.116;2023-03-04T10:40:57;98546.19;;;7.86;48.85
13553;BME280;6847;48.830;9.116;2023-03-04T10:43:28;98547.25;;;7.85;48.97
13553;BME280;6847;48.830;9.116;2023-03-04T10:45:58;98514.72;;;7.74;49.32
13553;BME280;6847;48.830;9.116;2023-03-04T10:48:31;98484.25;;;7.57;49.13
13553;BME280;6847;48.830;9.116;2023-03-04T10:51:11;98520.97;;;7.92;48.97
13553;BME280;6847;48.830;9.116;2023-03-04T10:53:48;98533.56;;;8.03;48.68
13553;BME280;6847;48.830;9.116;2023-03-04T10:56:37;98472.09;;;7.71;48.89
13553;BME280;6847;48.830;9.116;2023-03-04T10:59:40;98536.31;;;8.25;48.56
13553;BME280;6847;48.830;9.116;2023-03-04T11:02:27;98523.16;;;8.28;48.47
13553;BME280;6847;48.830;9.116;2023-03-04T11:05:09;98520.47;;;8.28;48.40
13553;BME280;6847;48.830;9.116;2023-03-04T11:07:45;98522.91;;;8.30;48.63
13553;BME280;6847;48.830;9.116;2023-03-04T11:10:27;98485.03;;;8.03;48.85
13553;BME280;6847;48.830;9.116;2023-03-04T11:13:00;98505.13;;;8.12;48.78
13553;BME280;6847;48.830;9.116;2023-03-04T11:15:47;98515.91;;;8.12;48.70
13553;BME280;6847;48.830;9.116;2023-03-04T11:18:22;98515.09;;;8.11;48.89
13553;BME280;6847;48.830;9.116;2023-03-04T11:20:56;98513.69;;;8.09;48.86
13553;BME280;6847;48.830;9.116;2023-03-04T11:23:32;98504.59;;;8.15;48.82
13553;BME280;6847;48.830;9.116;2023-03-04T11:26:09;98491.06;;;8.10;48.71
13553;BME280;6847;48.830;9.116;2023-03-04T11:28:41;98503.69;;;8.26;48.75
13553;BME280;6847;48.830;9.116;2023-03-04T11:31:16;98383.25;;;7.43;48.29
13553;BME280;6847;48.830;9.116;2023-03-04T11:33:52;98516.06;;;8.22;48.54
13553;BME280;6847;48.830;9.116;2023-03-04T11:36:32;98508.44;;;8.19;48.50
13553;BME280;6847;48.830;9.116;2023-03-04T11:39:04;98492.53;;;8.01;48.72
13553;BME280;6847;48.830;9.116;2023-03-04T11:41:53;98482.06;;;7.88;48.45
13553;BME280;6847;48.830;9.116;2023-03-04T11:44:39;98503.78;;;7.98;48.68
13553;BME280;6847;48.830;9.116;2023-03-04T11:47:25;98483.75;;;7.94;48.30
13553;BME280;6847;48.830;9.116;2023-03-04T11:56:12;98370.28;;;7.40;48.27
13553;BME280;6847;48.830;9.116;2023-03-04T11:59:14;98497.72;;;8.24;48.35
13553;BME280;6847;48.830;9.116;2023-03-04T12:01:54;98461.22;;;8.00;48.47
13553;BME280;6847;48.830;9.116;2023-03-04T12:07:47;98395.34;;;7.57;48.19
13553;BME280;6847;48.830;9.116;2023-03-04T12:10:57;98197.38;;;6.38;48.44
13553;BME280;6847;48.830;9.116;2023-03-04T12:13:57;98454.03;;;8.05;48.61
13553;BME280;6847;48.830;9.116;2023-03-04T12:16:40;98431.09;;;8.03;48.10
13553;BME280;6847;48.830;9.116;2023-03-04T12:19:24;98458.91;;;8.25;48.30
13553;BME280;6847;48.830;9.116;2023-03-04T12:22:20;98457.50;;;8.23;47.99
13553;BME280;6847;48.830;9.116;2023-03-04T12:27:48;98455.41;;;8.08;47.98
13553;BME280;6847;48.830;9.116;2023-03-04T12:30:39;98414.34;;;7.84;48.25
13553;BME280;6847;48.830;9.116;2023-03-04T12:33:20;98434.31;;;8.05;48.33
13553;BME280;6847;48.830;9.116;2023-03-04T12:35:53;98370.03;;;7.58;48.46
13553;BME280;6847;48.830;9.116;2023-03-04T12:38:35;98440.38;;;8.12;47.98
13553;BME280;6847;48.830;9.116;2023-03-04T12:41:21;98374.25;;;7.71;48.06
13553;BME280;6847;48.830;9.116;2023-03-04T12:44:04;98390.88;;;7.85;48.04
13553;BME280;6847;48.830;9.116;2023-03-04T12:46:41;98430.91;;;8.09;47.96
13553;BME280;6847;48.830;9.116;2023-03-04T12:49:41;98347.81;;;7.68;47.88
13553;BME280;6847;48.830;9.116;2023-03-04T12:52:21;98427.44;;;8.14;47.83
13553;BME280;6847;48.830;9.116;2023-03-04T12:55:01;98429.09;;;8.15;48.26
13553;BME280;6847;48.830;9.116;2023-03-04T12:57:29;98410.06;;;8.05;47.84
13553;BME280;6847;48.830;9.116;2023-03-04T13:00:13;98361.66;;;7.76;48.18
13553;BME280;6847;48.830;9.116;2023-03-04T13:02:50;98418.81;;;8.12;48.11
13553;BME280;6847;48.830;9.116;2023-03-04T13:05:28;98363.31;;;7.77;48.38
13553;BME280;6847;48.830;9.116;2023-03-04T13:08:04;98416.84;;;8.07;48.04
13553;BME280;6847;48.830;9.116;2023-03-04T13:10:34;98401.81;;;7.95;48.20
13553;BME280;6847;48.830;9.116;2023-03-04T13:13:01;98387.66;;;7.83;47.95
13553;BME280;6847;48.830;9.116;2023-03-04T13:15:32;98415.81;;;7.92;48.25
13553;BME280;6847;48.830;9.116;2023-03-04T13:18:32;98423.34;;;7.90;48.57
13553;BME280;6847;48.830;9.116;2023-03-04T13:21:19;98414.75;;;7.93;48.10
13553;BME280;6847;48.830;9.116;2023-03-04T13:23:51;98395.16;;;7.80;47.90
13553;BME280;6847;48.830;9.116;2023-03-04T13:26:27;98409.91;;;7.95;48.06
13553;BME280;6847;48.830;9.116;2023-03-04T13:29:10;98415.88;;;7.97;48.10
13553;BME280;6847;48.830;9.116;2023-03-04T13:31:57;98409.91;;;7.95;47.57
13553;BME280;6847;48.830;9.116;2023-03-04T13:34:46;98396.22;;;7.79;48.07
13553;BME280;6847;48.830;9.116;2023-03-04T13:37:29;98404.47;;;7.90;47.77
13553;BME280;6847;48.830;9.116;2023-03-04T13:40:23;98414.59;;;7.83;47.91
13553;BME280;6847;48.830;9.116;2023-03-04T13:43:25;98410.03;;;7.83;47.89
13553;BME280;6847;48.830;9.116;2023-03-04T13:45:53;98415.91;;;7.80;47.91
13553;BME280;6847;48.830;9.116;2023-03-04T13:48:31;98376.66;;;7.51;47.75
13553;BME280;6847;48.830;9.116;2023-03-04T13:58:49;98301.94;;;6.79;48.23
13553;BME280;6847;48.830;9.116;2023-03-04T14:01:27;98248.75;;;6.53;47.71
13553;BME280;6847;48.830;9.116;2023-03-04T14:03:57;98183.84;;;6.32;48.04
13553;BME280;6847;48.830;9.116;2023-03-04T14:06:33;98411.34;;;7.80;48.09
13553;BME280;6847;48.830;9.116;2023-03-04T14:09:23;98135.09;;;6.12;47.85
13553;BME280;6847;48.830;9.116;2023-03-04T14:12:13;98350.00;;;7.54;47.74
13553;BME280;6847;48.830;9.116;2023-03-04T14:15:20;98117.50;;;6.21;47.64
13553;BME280;6847;48.830;9.116;2023-03-04T14:18:14;98126.31;;;6.34;47.84
13553;BME280;6847;48.830;9.116;2023-03-04T14:21:16;98331.97;;;7.71;47.74
13553;BME280;6847;48.830;9.116;2023-03-04T14:23:57;98392.97;;;8.16;47.50
13553;BME280;6847;48.830;9.116;2023-03-04T14:26:24;98222.56;;;7.15;47.20
13553;BME280;6847;48.830;9.116;2023-03-04T14:28:52;98337.50;;;7.82;47.41
13553;BME280;6847;48.830;9.116;2023-03-04T14:31:24;98373.81;;;7.96;47.79
13553;BME280;6847;48.830;9.116;2023-03-04T14:33:54;98366.97;;;7.88;47.54
13553;BME280;6847;48.830;9.116;2023-03-04T14:36:24;98379.72;;;7.93;47.61
13553;BME280;6847;48.830;9.116;2023-03-04T14:38:53;98377.41;;;7.85;47.90
13553;BME280;6847;48.830;9.116;2023-03-04T14:41:31;98379.47;;;7.77;47.82
13553;BME280;6847;48.830;9.116;2023-03-04T14:44:03;98302.63;;;7.20;47.83
13553;BME280;6847;48.830;9.116;2023-03-04T14:46:43;98377.69;;;7.66;48.13
13553;BME280;6847;48.830;9.116;2023-03-04T14:49:12;98377.03;;;7.59;47.82
13553;BME280;6847;48.830;9.116;2023-03-04T14:51:45;98383.91;;;7.50;48.23
13553;BME280;6847;48.830;9.116;2023-03-04T14:54:35;98374.44;;;7.48;47.92
13553;BME280;6847;48.830;9.116;2023-03-04T14:57:30;98372.50;;;7.43;47.81
13553;BME280;6847;48.830;9.116;2023-03-04T15:00:23;98352.66;;;7.32;48.13
13553;BME280;6847;48.830;9.116;2023-03-04T15:02:59;98375.09;;;7.38;48.08
13553;BME280;6847;48.830;9.116;2023-03-04T15:05:30;98370.19;;;7.35;47.97
13553;BME280;6847;48.830;9.116;2023-03-04T15:08:00;98344.72;;;7.26;47.75
13553;BME280;6847;48.830;9.116;2023-03-04T15:10:33;98328.38;;;7.16;47.97
13553;BME280;6847;48.830;9.116;2023-03-04T15:13:05;98315.56;;;7.06;48.25
13553;BME280;6847;48.830;9.116;2023-03-04T15:15:38;98249.59;;;6.70;47.64
13553;BME280;6847;48.830;9.116;2023-03-04T15:24:50;98371.75;;;7.31;47.73
13553;BME280;6847;48.830;9.116;2023-03-04T15:27:26;98357.78;;;7.34;47.85
13553;BME280;6847;48.830;9.116;2023-03-04T15:29:53;98362.84;;;7.30;48.07
13553;BME280;6847;48.830;9.116;2023-03-04T15:32:24;98321.06;;;6.94;47.76
13553;BME280;6847;48.830;9.116;2023-03-04T15:35:08;98283.03;;;6.74;48.02
13553;BME280;6847;48.830;9.116;2023-03-04T15:37:38;98365.44;;;7.25;47.68
13553;BME280;6847;48.830;9.116;2023-03-04T15:40:19;98354.66;;;7.25;48.17
13553;BME280;6847;48.830;9.116;2023-03-04T15:42:49;98352.78;;;7.26;47.90
13553;BME280;6847;48.830;9.116;2023-03-04T15:45:20;98351.72;;;7.27;47.97
13553;BME280;6847;48.830;9.116;2023-03-04T15:47:48;98350.38;;;7.24;47.71